Terminal Aerodrome Forecast
Issued by NWS Sterling, VA

Current Version | Previous Version | Graphics & Text | Print | Product List | Glossary On
Versions: 1 2 3 4 5 6 7 8 9 10 11 12 13 14 15 16 17 18 19 20 21 22 23 24 25 26 27
000
FTUS41 KLWX 232049 AAA
TAFIAD
TAF AMD
KIAD 232049Z 2321/2424 14012G19KT P6SM BKN050
     FM240100 14008KT P6SM BKN150
     FM240900 11005KT P6SM -RA OVC070
     FM241200 10007KT 5SM RA OVC025
     FM241400 11008KT 5SM RA OVC015
     FM242000 09009KT 1 1/2SM RA OVC003
     FM242300 08009KT 3SM RA OVC008=

USA.gov is the U.S. government's official web portal to all federal, state and local government web resources and services.